createdAt,value
2022-10-04T00:02:34.357Z,15.37
2022-10-04T00:05:27.947Z,15.46
2022-10-04T00:08:26.860Z,15.06
2022-10-04T00:11:30.532Z,13.77
2022-10-04T00:14:39.567Z,13.20
2022-10-04T00:17:35.821Z,14.06
2022-10-04T00:20:50.893Z,14.63
2022-10-04T00:23:38.765Z,15.00
2022-10-04T00:26:29.751Z,15.24
2022-10-04T00:29:44.009Z,15.38
2022-10-04T00:32:41.646Z,15.53
2022-10-04T00:35:30.033Z,15.55
2022-10-04T00:38:27.966Z,15.67
2022-10-04T00:41:16.455Z,15.72
2022-10-04T00:44:13.322Z,15.80
2022-10-04T00:47:13.300Z,15.23
2022-10-04T00:50:28.994Z,13.97
2022-10-04T00:53:27.216Z,14.20
2022-10-04T00:56:56.676Z,14.90
2022-10-04T00:59:52.021Z,15.31
2022-10-04T01:02:55.381Z,15.56
2022-10-04T01:05:53.974Z,15.73
2022-10-04T01:08:51.802Z,15.87
2022-10-04T01:11:49.100Z,15.73
2022-10-04T01:14:50.456Z,14.68
2022-10-04T01:17:38.509Z,13.94
2022-10-04T01:20:37.899Z,14.57
2022-10-04T01:23:42.119Z,15.07
2022-10-04T01:26:30.501Z,15.31
2022-10-04T01:29:31.601Z,15.36
2022-10-04T01:32:19.542Z,15.46
2022-10-04T01:35:11.904Z,15.54
2022-10-04T01:37:59.816Z,15.59
2022-10-04T01:40:55.841Z,15.61
2022-10-04T01:43:49.381Z,15.61
2022-10-04T01:46:40.519Z,15.65
2022-10-04T01:49:33.451Z,15.53
2022-10-04T01:52:42.619Z,14.44
2022-10-04T01:55:36.208Z,13.57
2022-10-04T01:58:34.174Z,14.17
2022-10-04T02:01:33.001Z,14.64
2022-10-04T02:04:28.206Z,14.84
2022-10-04T02:07:16.694Z,15.00
2022-10-04T02:10:10.792Z,15.06
2022-10-04T02:12:58.545Z,15.11
2022-10-04T02:15:48.135Z,15.20
2022-10-04T02:18:39.362Z,15.30
2022-10-04T02:21:27.375Z,15.28
2022-10-04T02:24:16.855Z,15.30
2022-10-04T02:27:06.417Z,15.38
2022-10-04T02:30:01.045Z,15.45
2022-10-04T02:32:59.889Z,15.47
2022-10-04T02:35:48.682Z,15.53
2022-10-04T02:38:44.602Z,15.63
2022-10-04T02:41:52.586Z,15.64
2022-10-04T02:44:49.094Z,15.63
2022-10-04T02:48:13.776Z,15.52
2022-10-04T02:51:17.830Z,15.48
2022-10-04T02:54:27.641Z,15.46
2022-10-04T02:57:22.574Z,15.50
2022-10-04T03:00:21.812Z,15.50
2022-10-04T03:03:20.434Z,15.56
2022-10-04T03:06:13.224Z,15.54
2022-10-04T03:09:05.859Z,15.50
2022-10-04T03:11:54.086Z,15.52
2022-10-04T03:14:43.308Z,15.48
2022-10-04T03:17:31.192Z,15.48
2022-10-04T03:20:21.509Z,15.47
2022-10-04T03:23:12.290Z,15.53
2022-10-04T03:26:31.111Z,15.53
2022-10-04T03:29:22.100Z,15.54
2022-10-04T03:32:17.338Z,15.60
2022-10-04T03:35:16.017Z,15.63
2022-10-04T03:38:10.035Z,15.61
2022-10-04T03:41:01.477Z,15.62
2022-10-04T03:43:51.576Z,15.67
2022-10-04T03:46:39.854Z,15.67
2022-10-04T03:49:36.039Z,15.67
2022-10-04T03:52:30.848Z,15.63
2022-10-04T03:55:20.201Z,15.62
2022-10-04T03:58:16.409Z,15.58
2022-10-04T04:01:32.516Z,15.51
2022-10-04T04:04:31.338Z,15.51
2022-10-04T04:07:39.302Z,15.55
2022-10-04T04:10:31.360Z,15.53
2022-10-04T04:13:56.154Z,15.58
2022-10-04T04:16:45.322Z,15.58
2022-10-04T04:19:34.964Z,15.65
2022-10-04T04:22:24.170Z,15.69
2022-10-04T04:25:17.432Z,15.73
2022-10-04T04:28:18.784Z,15.61
2022-10-04T04:31:17.098Z,15.55
2022-10-04T04:34:25.659Z,15.70
2022-10-04T04:37:13.391Z,15.76
2022-10-04T04:40:20.497Z,15.85
2022-10-04T04:43:17.980Z,15.98
2022-10-04T04:46:26.475Z,16.00
2022-10-04T04:49:18.931Z,16.00
2022-10-04T04:52:17.069Z,16.02
2022-10-04T04:55:14.929Z,16.06
2022-10-04T04:58:05.389Z,15.98
2022-10-04T05:01:00.979Z,15.92
2022-10-04T05:04:07.129Z,15.87
2022-10-04T05:07:03.840Z,16.01
2022-10-04T05:09:53.012Z,16.03
2022-10-04T05:12:46.935Z,15.99
2022-10-04T05:15:37.484Z,15.99
2022-10-04T05:18:33.943Z,15.95
2022-10-04T05:21:31.536Z,16.00
2022-10-04T05:24:47.116Z,16.04
2022-10-04T05:27:45.169Z,15.98
2022-10-04T05:30:43.883Z,16.00
2022-10-04T05:33:40.668Z,16.04
2022-10-04T05:37:06.754Z,16.10
2022-10-04T05:40:13.345Z,16.26
2022-10-04T05:43:35.037Z,16.43
2022-10-04T05:46:34.955Z,16.49
2022-10-04T05:49:25.704Z,16.52
2022-10-04T05:52:24.991Z,16.57
2022-10-04T05:55:13.272Z,16.60
2022-10-04T05:58:22.191Z,16.61
2022-10-04T06:01:24.444Z,16.64
2022-10-04T06:04:42.929Z,16.63
2022-10-04T06:07:59.880Z,16.90
2022-10-04T06:10:57.626Z,16.56
2022-10-04T06:14:01.802Z,15.23
2022-10-04T06:17:07.470Z,14.68
2022-10-04T06:20:22.544Z,15.55
2022-10-04T06:23:18.769Z,16.40
2022-10-04T06:26:14.289Z,16.82
2022-10-04T06:29:11.250Z,17.10
2022-10-04T06:32:20.638Z,17.28
2022-10-04T06:35:11.345Z,17.39
2022-10-04T06:38:47.336Z,17.42
2022-10-04T06:42:20.386Z,16.28
2022-10-04T06:45:40.847Z,15.95
2022-10-04T06:48:47.822Z,16.99
2022-10-04T06:52:17.506Z,18.25
2022-10-04T06:55:36.768Z,18.28
2022-10-04T06:59:11.675Z,18.17
2022-10-04T07:02:14.373Z,18.57
2022-10-04T07:05:30.876Z,17.51
2022-10-04T07:08:34.369Z,17.69
2022-10-04T07:11:43.569Z,18.77
2022-10-04T07:14:38.845Z,18.75
2022-10-04T07:17:58.611Z,17.58
2022-10-04T07:20:49.133Z,16.63
2022-10-04T07:23:56.446Z,17.20
2022-10-04T07:26:53.238Z,18.28
2022-10-04T07:29:46.703Z,19.31
2022-10-04T07:32:45.491Z,19.70
2022-10-04T07:35:46.844Z,18.94
2022-10-04T07:38:44.637Z,19.17
2022-10-04T07:41:50.091Z,21.07
2022-10-04T07:44:43.324Z,21.60
2022-10-04T07:47:32.640Z,21.95
2022-10-04T07:50:39.463Z,22.04
2022-10-04T07:53:53.722Z,21.58
2022-10-04T07:56:54.667Z,22.20
2022-10-04T08:00:13.053Z,22.54
2022-10-04T08:03:33.553Z,22.40
2022-10-04T08:06:56.575Z,22.43
2022-10-04T08:10:24.195Z,22.70
2022-10-04T08:13:46.252Z,22.75
2022-10-04T08:17:02.624Z,21.92
2022-10-04T08:20:31.189Z,20.61
2022-10-04T08:24:05.067Z,19.96
2022-10-04T08:26:58.823Z,21.00
2022-10-04T08:30:04.839Z,22.37
2022-10-04T08:33:23.542Z,23.13
2022-10-04T08:36:32.328Z,22.78
2022-10-04T08:39:39.486Z,22.47
2022-10-04T08:42:54.766Z,22.95
2022-10-04T08:45:58.324Z,23.63
2022-10-04T08:48:52.296Z,24.17
2022-10-04T08:52:06.516Z,25.06
2022-10-04T08:55:39.030Z,25.49
2022-10-04T08:58:51.964Z,26.49
2022-10-04T09:02:29.287Z,27.32
2022-10-04T09:05:58.024Z,27.32
2022-10-04T09:09:07.400Z,26.60
2022-10-04T09:12:33.814Z,26.65
2022-10-04T09:15:56.910Z,27.96
2022-10-04T09:19:45.258Z,28.33
2022-10-04T09:23:06.506Z,28.15
2022-10-04T09:26:14.666Z,29.07
2022-10-04T09:29:20.986Z,29.22
2022-10-04T09:32:41.094Z,28.93
2022-10-04T09:36:29.222Z,29.11
2022-10-04T09:39:30.429Z,29.92
2022-10-04T09:42:44.003Z,30.17
2022-10-04T09:46:07.896Z,30.50
2022-10-04T09:49:01.677Z,30.88
2022-10-04T09:52:09.122Z,31.08
2022-10-04T09:55:16.977Z,30.59
2022-10-04T09:58:53.493Z,30.98
2022-10-04T10:02:29.261Z,31.77
2022-10-04T10:05:41.909Z,32.47
2022-10-04T10:08:57.056Z,32.69
2022-10-04T10:13:00.106Z,32.85
2022-10-04T10:16:20.370Z,33.51
2022-10-04T10:19:35.855Z,34.42
2022-10-04T10:22:42.631Z,34.66
2022-10-04T10:25:49.463Z,34.38
2022-10-04T10:29:08.589Z,34.28
2022-10-04T10:32:22.568Z,33.49
2022-10-04T10:35:56.922Z,31.44
2022-10-04T10:39:26.625Z,31.45
2022-10-04T10:42:58.737Z,31.26
2022-10-04T10:46:27.387Z,29.60
2022-10-04T10:49:46.296Z,29.04
2022-10-04T10:53:32.602Z,29.32
2022-10-04T10:56:47.212Z,30.36
2022-10-04T10:59:38.095Z,31.14
2022-10-04T11:02:53.710Z,31.19
2022-10-04T11:06:08.017Z,30.84
2022-10-04T11:09:34.254Z,30.35
2022-10-04T11:13:03.610Z,30.79
2022-10-04T11:16:21.516Z,31.52
2022-10-04T11:19:33.414Z,32.05
2022-10-04T11:23:02.205Z,32.30
2022-10-04T11:26:24.042Z,32.11
2022-10-04T11:29:31.113Z,31.52
2022-10-04T11:32:53.409Z,30.75
2022-10-04T11:36:08.322Z,29.46
2022-10-04T11:39:17.800Z,28.12
2022-10-04T11:42:37.330Z,26.73
2022-10-04T11:45:38.481Z,26.41
2022-10-04T11:48:37.990Z,26.81
2022-10-04T11:52:25.465Z,27.22
2022-10-04T11:55:25.061Z,27.72
2022-10-04T11:58:24.740Z,27.79
2022-10-04T12:01:30.543Z,27.82
2022-10-04T12:05:33.543Z,27.79
2022-10-04T12:08:54.994Z,27.12
2022-10-04T12:12:08.039Z,26.64
2022-10-04T12:15:30.434Z,26.40
2022-10-04T12:18:24.004Z,25.94
2022-10-04T12:21:50.570Z,25.34
2022-10-04T12:24:58.949Z,24.42
2022-10-04T12:28:11.692Z,23.55
2022-10-04T12:31:20.436Z,22.62
2022-10-04T12:34:45.398Z,21.80
2022-10-04T12:37:50.507Z,20.98
2022-10-04T12:41:16.943Z,20.32
2022-10-04T12:44:47.449Z,19.69
2022-10-04T12:48:27.700Z,19.18
2022-10-04T12:51:30.617Z,18.74
2022-10-04T12:54:52.933Z,18.45
2022-10-04T12:58:05.989Z,18.33
2022-10-04T13:01:05.275Z,18.35
2022-10-04T13:04:24.742Z,18.28
2022-10-04T13:07:31.132Z,18.16
2022-10-04T13:10:38.735Z,18.04
2022-10-04T13:14:12.369Z,17.90
2022-10-04T13:17:36.150Z,17.74
2022-10-04T13:20:38.159Z,17.57
2022-10-04T13:23:58.316Z,17.45
2022-10-04T13:26:58.219Z,17.35
2022-10-04T13:30:23.621Z,17.29
2022-10-04T13:33:45.587Z,17.19
2022-10-04T13:37:07.524Z,17.03
2022-10-04T13:40:29.638Z,16.86
2022-10-04T13:43:23.365Z,16.72
2022-10-04T13:46:39.357Z,16.57
2022-10-04T13:50:10.709Z,16.46
2022-10-04T13:54:02.290Z,16.36
2022-10-04T13:57:25.647Z,16.20
2022-10-04T14:00:37.142Z,15.96
2022-10-04T14:03:33.448Z,15.75
2022-10-04T14:06:53.133Z,15.63
2022-10-04T14:10:18.262Z,15.57
2022-10-04T14:13:45.837Z,15.57
2022-10-04T14:16:58.497Z,15.55
2022-10-04T14:20:20.440Z,15.56
2022-10-04T14:23:47.005Z,15.56
2022-10-04T14:27:05.457Z,15.56
2022-10-04T14:30:24.963Z,15.52
2022-10-04T14:33:37.840Z,15.46
2022-10-04T14:36:31.518Z,15.42
2022-10-04T14:40:11.195Z,15.39
2022-10-04T14:43:24.165Z,15.32
2022-10-04T14:46:39.291Z,15.26
2022-10-04T14:50:00.193Z,15.14
2022-10-04T14:53:23.326Z,15.03
2022-10-04T14:56:24.306Z,14.93
2022-10-04T14:59:17.076Z,14.84
2022-10-04T15:02:07.826Z,14.74
2022-10-04T15:05:13.694Z,14.65
2022-10-04T15:08:25.135Z,14.54
2022-10-04T15:11:57.488Z,14.42
2022-10-04T15:15:16.879Z,14.27
2022-10-04T15:18:47.086Z,14.14
2022-10-04T15:21:44.042Z,14.02
2022-10-04T15:24:52.970Z,13.92
2022-10-04T15:27:52.355Z,13.82
2022-10-04T15:31:10.408Z,13.72
2022-10-04T15:34:30.084Z,13.76
2022-10-04T15:37:48.523Z,13.74
2022-10-04T15:41:14.243Z,13.60
2022-10-04T15:44:11.986Z,13.43
2022-10-04T15:47:46.372Z,13.29
2022-10-04T15:50:40.510Z,13.12
2022-10-04T15:53:47.652Z,12.99
2022-10-04T15:56:41.646Z,13.87
2022-10-04T15:59:36.394Z,15.22
2022-10-04T16:02:55.733Z,15.64
2022-10-04T16:06:05.757Z,14.77
2022-10-04T16:09:15.064Z,14.07
2022-10-04T16:12:37.779Z,13.59
2022-10-04T16:15:41.000Z,13.21
2022-10-04T16:19:00.171Z,12.92
2022-10-04T16:21:48.345Z,12.65
2022-10-04T16:24:45.891Z,12.75
2022-10-04T16:27:51.915Z,14.07
2022-10-04T16:31:26.813Z,15.16
2022-10-04T16:34:42.556Z,15.92
2022-10-04T16:37:42.801Z,16.60
2022-10-04T16:40:35.747Z,16.61
2022-10-04T16:43:28.557Z,15.49
2022-10-04T16:46:30.627Z,14.54
2022-10-04T16:49:41.987Z,13.82
2022-10-04T16:53:14.032Z,13.25
2022-10-04T16:56:25.461Z,12.73
2022-10-04T16:59:13.777Z,12.82
2022-10-04T17:02:54.931Z,14.00
2022-10-04T17:06:01.570Z,15.10
2022-10-04T17:09:48.276Z,15.61
2022-10-04T17:13:13.967Z,15.13
2022-10-04T17:16:10.555Z,14.07
2022-10-04T17:19:21.895Z,13.32
2022-10-04T17:22:38.696Z,12.71
2022-10-04T17:26:01.069Z,12.71
2022-10-04T17:29:08.260Z,14.01
2022-10-04T17:33:01.176Z,14.83
2022-10-04T17:36:11.475Z,15.40
2022-10-04T17:39:28.449Z,15.69
2022-10-04T17:42:34.717Z,15.98
2022-10-04T17:45:53.293Z,16.21
2022-10-04T17:49:20.259Z,15.80
2022-10-04T17:52:38.222Z,14.37
2022-10-04T17:55:53.058Z,13.36
2022-10-04T17:58:53.944Z,13.10
2022-10-04T18:01:47.612Z,14.11
2022-10-04T18:04:45.748Z,14.85
2022-10-04T18:07:44.190Z,15.28
2022-10-04T18:10:43.782Z,15.22
2022-10-04T18:13:50.419Z,14.10
2022-10-04T18:17:09.333Z,13.13
2022-10-04T18:20:12.702Z,13.02
2022-10-04T18:23:16.832Z,14.14
2022-10-04T18:26:22.457Z,14.95
2022-10-04T18:29:14.335Z,15.37
2022-10-04T18:32:33.240Z,14.91
2022-10-04T18:35:33.852Z,13.75
2022-10-04T18:38:43.500Z,13.39
2022-10-04T18:42:00.929Z,14.47
2022-10-04T18:45:14.380Z,15.18
2022-10-04T18:48:54.011Z,15.09
2022-10-04T18:52:21.429Z,13.77
2022-10-04T18:55:38.234Z,13.40
2022-10-04T18:59:34.649Z,14.47
2022-10-04T19:02:38.798Z,14.93
2022-10-04T19:05:54.958Z,14.24
2022-10-04T19:09:04.232Z,14.71
2022-10-04T19:12:15.341Z,15.34
2022-10-04T19:15:06.152Z,15.13
2022-10-04T19:18:37.468Z,14.05
2022-10-04T19:21:42.090Z,13.77
2022-10-04T19:25:14.862Z,14.70
2022-10-04T19:28:30.352Z,15.19
2022-10-04T19:31:30.747Z,14.34
2022-10-04T19:35:02.047Z,13.91
2022-10-04T19:38:29.879Z,14.86
2022-10-04T19:42:15.663Z,15.40
2022-10-04T19:45:26.419Z,15.91
2022-10-04T19:48:46.816Z,16.18
2022-10-04T19:51:51.330Z,15.83
2022-10-04T19:54:45.472Z,14.63
2022-10-04T20:02:33.419Z,15.20
2022-10-04T20:05:49.865Z,15.64
2022-10-04T20:09:01.462Z,15.99
2022-10-04T20:11:52.779Z,15.20
2022-10-04T20:14:43.915Z,14.06
2022-10-04T20:17:33.379Z,13.66
2022-10-04T20:20:57.300Z,14.40
2022-10-04T20:23:48.018Z,15.13
2022-10-04T20:26:54.174Z,15.47
2022-10-04T20:29:42.686Z,15.72
2022-10-04T20:32:33.321Z,15.72
2022-10-04T20:36:06.431Z,14.76
2022-10-04T20:39:01.954Z,14.20
2022-10-04T20:42:19.933Z,14.80
2022-10-04T20:45:10.998Z,15.30
2022-10-04T20:47:59.360Z,15.61
2022-10-04T20:50:49.964Z,15.83
2022-10-04T20:53:46.859Z,15.99
2022-10-04T20:56:34.700Z,16.17
2022-10-04T20:59:24.191Z,16.31
2022-10-04T21:02:17.821Z,16.36
2022-10-04T21:05:25.158Z,15.53
2022-10-04T21:08:24.392Z,14.25
2022-10-04T21:11:21.312Z,13.81
2022-10-04T21:14:27.898Z,14.67
2022-10-04T21:17:30.681Z,15.32
2022-10-04T21:20:49.027Z,15.75
2022-10-04T21:23:37.456Z,16.01
2022-10-04T21:26:26.376Z,16.16
2022-10-04T21:29:14.322Z,15.93
2022-10-04T21:32:02.165Z,14.84
2022-10-04T21:34:54.635Z,13.84
2022-10-04T21:37:45.214Z,13.56
2022-10-04T21:40:33.305Z,14.50
2022-10-04T21:43:22.205Z,15.23
2022-10-04T21:46:09.829Z,15.60
2022-10-04T21:48:57.902Z,15.86
2022-10-04T21:51:45.940Z,16.12
2022-10-04T21:54:34.461Z,16.23
2022-10-04T21:57:24.240Z,15.79
2022-10-04T22:00:12.961Z,14.63
2022-10-04T22:03:00.829Z,14.07
2022-10-04T22:05:48.762Z,14.81
2022-10-04T22:08:36.513Z,15.44
2022-10-04T22:11:24.611Z,15.84
2022-10-04T22:14:12.421Z,16.02
2022-10-04T22:17:00.374Z,16.13
2022-10-04T22:19:50.096Z,15.89
2022-10-04T22:22:39.966Z,14.76
2022-10-04T22:25:34.717Z,14.40
2022-10-04T22:28:27.259Z,15.13
2022-10-04T22:31:19.803Z,15.70
2022-10-04T22:34:19.390Z,16.05
2022-10-04T22:37:12.028Z,16.17
2022-10-04T22:40:00.010Z,16.14
2022-10-04T22:42:53.513Z,15.24
2022-10-04T22:45:43.494Z,14.15
2022-10-04T22:48:32.400Z,13.81
2022-10-04T22:51:20.474Z,14.64
2022-10-04T22:54:15.821Z,15.33
2022-10-04T22:57:03.680Z,15.82
2022-10-04T22:59:53.048Z,16.15
2022-10-04T23:02:40.757Z,16.34
2022-10-04T23:05:28.867Z,16.06
2022-10-04T23:08:18.147Z,14.89
2022-10-04T23:11:06.145Z,14.28
2022-10-04T23:13:57.233Z,14.95
2022-10-04T23:16:46.257Z,15.50
2022-10-04T23:19:34.429Z,15.80
2022-10-04T23:22:27.907Z,15.98
2022-10-04T23:25:19.979Z,16.13
2022-10-04T23:28:14.570Z,16.25
2022-10-04T23:31:20.924Z,16.09
2022-10-04T23:34:45.501Z,14.98
2022-10-04T23:37:33.195Z,14.42
2022-10-04T23:40:24.621Z,15.08
2022-10-04T23:43:25.281Z,15.52
2022-10-04T23:46:24.037Z,15.87
2022-10-04T23:49:20.469Z,16.09
2022-10-04T23:52:25.231Z,16.00
2022-10-04T23:55:27.180Z,14.93
2022-10-04T23:58:26.123Z,14.22
